createdAt,value
2023-04-12T00:02:09.610Z,100.00
2023-04-12T00:04:36.117Z,100.00
2023-04-12T00:07:02.459Z,100.00
2023-04-12T00:09:28.696Z,100.00
2023-04-12T00:11:54.924Z,100.00
2023-04-12T00:14:21.169Z,100.00
2023-04-12T00:16:47.449Z,100.00
2023-04-12T00:19:13.694Z,100.00
2023-04-12T00:21:39.929Z,100.00
2023-04-12T00:24:06.162Z,100.00
2023-04-12T00:26:32.404Z,100.00
2023-04-12T00:28:58.641Z,100.00
2023-04-12T00:31:24.908Z,100.00
2023-04-12T00:33:51.204Z,100.00
2023-04-12T00:36:17.499Z,100.00
2023-04-12T00:38:43.806Z,100.00
2023-04-12T00:41:10.092Z,100.00
2023-04-12T00:43:36.340Z,100.00
2023-04-12T00:46:02.577Z,100.00
2023-04-12T00:48:30.002Z,100.00
2023-04-12T00:50:56.282Z,100.00
2023-04-12T00:53:22.530Z,100.00
2023-04-12T00:55:48.777Z,100.00
2023-04-12T00:58:15.034Z,100.00
2023-04-12T01:00:41.336Z,100.00
2023-04-12T01:03:07.865Z,100.00
2023-04-12T01:05:34.256Z,100.00
2023-04-12T01:08:00.508Z,99.82
2023-04-12T01:10:26.775Z,97.98
2023-04-12T01:12:53.049Z,99.01
2023-04-12T01:15:19.305Z,98.33
2023-04-12T01:17:45.624Z,99.55
2023-04-12T01:20:11.956Z,99.17
2023-04-12T01:22:38.214Z,99.28
2023-04-12T01:25:04.510Z,99.05
2023-04-12T01:27:30.774Z,98.42
2023-04-12T01:29:57.022Z,98.30
2023-04-12T01:32:23.341Z,98.35
2023-04-12T01:34:49.668Z,98.09
2023-04-12T01:37:15.923Z,97.51
2023-04-12T01:39:42.182Z,97.80
2023-04-12T01:42:08.436Z,98.25
2023-04-12T01:44:34.716Z,99.12
2023-04-12T01:47:01.004Z,99.30
2023-04-12T01:49:27.249Z,98.67
2023-04-12T01:51:53.494Z,97.09
2023-04-12T01:54:19.730Z,96.21
2023-04-12T01:56:45.977Z,98.21
2023-04-12T01:59:12.216Z,99.84
2023-04-12T02:01:38.547Z,100.00
2023-04-12T02:04:05.028Z,100.00
2023-04-12T02:06:31.411Z,100.00
2023-04-12T02:08:57.655Z,100.00
2023-04-12T02:11:23.889Z,100.00
2023-04-12T02:13:50.125Z,100.00
2023-04-12T02:16:16.397Z,100.00
2023-04-12T02:18:42.632Z,100.00
2023-04-12T02:21:08.868Z,100.00
2023-04-12T02:23:35.123Z,100.00
2023-04-12T02:26:01.369Z,100.00
2023-04-12T02:28:27.614Z,100.00
2023-04-12T02:30:53.984Z,100.00
2023-04-12T02:33:20.430Z,100.00
2023-04-12T02:35:46.865Z,100.00
2023-04-12T02:38:13.177Z,100.00
2023-04-12T02:40:39.439Z,100.00
2023-04-12T02:43:05.691Z,100.00
2023-04-12T02:45:31.936Z,100.00
2023-04-12T02:47:58.206Z,100.00
2023-04-12T02:50:24.489Z,98.28
2023-04-12T02:52:50.731Z,96.91
2023-04-12T02:55:16.968Z,96.36
2023-04-12T02:57:43.205Z,97.60
2023-04-12T03:00:09.497Z,98.37
2023-04-12T03:02:35.889Z,97.94
2023-04-12T03:05:02.171Z,95.41
2023-04-12T03:07:28.419Z,94.72
2023-04-12T03:09:54.657Z,93.27
2023-04-12T03:12:20.908Z,93.42
2023-04-12T03:14:47.139Z,94.17
2023-04-12T03:17:13.418Z,93.89
2023-04-12T03:19:39.654Z,93.33
2023-04-12T03:22:05.897Z,92.59
2023-04-12T03:24:32.152Z,90.96
2023-04-12T03:26:58.389Z,91.49
2023-04-12T03:29:24.619Z,92.33
2023-04-12T03:31:50.861Z,91.84
2023-04-12T03:34:17.390Z,91.87
2023-04-12T03:36:43.674Z,90.82
2023-04-12T03:39:09.921Z,91.41
2023-04-12T03:41:36.183Z,89.93
2023-04-12T03:44:02.494Z,90.53
2023-04-12T03:46:28.779Z,90.25
2023-04-12T03:48:55.089Z,90.26
2023-04-12T03:51:21.319Z,89.09
2023-04-12T03:53:47.550Z,97.80
2023-04-12T03:56:13.796Z,97.96
2023-04-12T03:58:40.082Z,96.40
2023-04-12T04:01:06.312Z,94.31
2023-04-12T04:03:32.738Z,93.41
2023-04-12T04:05:59.042Z,92.89
2023-04-12T04:08:25.295Z,92.52
2023-04-12T04:10:51.532Z,92.69
2023-04-12T04:13:17.781Z,92.37
2023-04-12T04:15:44.025Z,92.13
2023-04-12T04:18:10.278Z,91.88
2023-04-12T04:20:36.546Z,90.94
2023-04-12T04:23:02.837Z,90.48
2023-04-12T04:25:29.073Z,91.32
2023-04-12T04:27:55.308Z,92.58
2023-04-12T04:30:21.550Z,93.12
2023-04-12T04:32:47.867Z,93.45
2023-04-12T04:35:14.224Z,93.57
2023-04-12T04:37:40.619Z,94.46
2023-04-12T04:40:06.903Z,94.21
2023-04-12T04:42:33.212Z,94.02
2023-04-12T04:44:59.440Z,94.01
2023-04-12T04:47:25.696Z,94.35
2023-04-12T04:49:51.932Z,94.02
2023-04-12T04:52:18.208Z,91.05
2023-04-12T04:54:44.909Z,90.23
2023-04-12T04:57:11.157Z,90.00
2023-04-12T04:59:37.398Z,88.69
2023-04-12T05:02:03.649Z,88.81
2023-04-12T05:04:30.017Z,89.23
2023-04-12T05:06:56.276Z,89.99
2023-04-12T05:09:22.512Z,90.88
2023-04-12T05:11:48.770Z,91.77
2023-04-12T05:14:15.022Z,91.88
2023-04-12T05:16:41.356Z,91.79
2023-04-12T05:19:07.628Z,91.14
2023-04-12T05:21:33.881Z,90.16
2023-04-12T05:24:00.166Z,90.64
2023-04-12T05:26:26.456Z,90.38
2023-04-12T05:28:52.708Z,90.11
2023-04-12T05:31:19.008Z,87.79
2023-04-12T05:33:45.341Z,86.61
2023-04-12T05:36:11.661Z,85.43
2023-04-12T05:38:37.893Z,84.05
2023-04-12T05:41:04.155Z,84.29
2023-04-12T05:43:30.394Z,83.77
2023-04-12T05:45:56.714Z,83.38
2023-04-12T05:48:23.033Z,82.50
2023-04-12T05:50:49.277Z,79.80
2023-04-12T05:53:15.516Z,78.18
2023-04-12T05:55:41.747Z,79.06
2023-04-12T05:58:08.039Z,79.46
2023-04-12T06:00:34.359Z,79.24
2023-04-12T06:03:00.806Z,79.89
2023-04-12T06:05:27.150Z,80.71
2023-04-12T06:07:53.418Z,81.38
2023-04-12T06:10:19.703Z,80.02
2023-04-12T06:12:45.947Z,82.04
2023-04-12T06:15:12.198Z,82.16
2023-04-12T06:17:38.525Z,83.11
2023-04-12T06:20:05.333Z,84.67
2023-04-12T06:22:31.565Z,84.40
2023-04-12T06:24:57.799Z,85.36
2023-04-12T06:27:24.026Z,84.78
2023-04-12T06:29:50.254Z,85.23
2023-04-12T06:32:16.482Z,85.75
2023-04-12T06:34:42.722Z,85.35
2023-04-12T06:37:08.970Z,83.85
2023-04-12T06:39:35.298Z,87.01
2023-04-12T06:42:01.565Z,84.24
2023-04-12T06:44:27.862Z,81.75
2023-04-12T06:46:54.191Z,81.07
2023-04-12T06:49:20.571Z,84.17
2023-04-12T06:51:46.825Z,84.58
2023-04-12T06:54:13.073Z,81.47
2023-04-12T06:56:39.349Z,75.47
2023-04-12T06:59:05.660Z,83.46
2023-04-12T07:01:31.903Z,82.24
2023-04-12T07:03:58.247Z,80.39
2023-04-12T07:06:26.042Z,96.82
2023-04-12T07:08:52.705Z,92.50
2023-04-12T07:11:21.927Z,85.19
2023-04-12T07:13:48.440Z,82.91
2023-04-12T07:16:14.691Z,85.67
2023-04-12T07:18:40.964Z,77.62
2023-04-12T07:21:07.211Z,80.57
2023-04-12T07:23:33.618Z,82.07
2023-04-12T07:25:59.867Z,76.12
2023-04-12T07:28:26.099Z,77.20
2023-04-12T07:30:52.342Z,75.12
2023-04-12T07:33:19.856Z,72.67
2023-04-12T07:35:46.584Z,82.55
2023-04-12T07:38:13.612Z,78.46
2023-04-12T07:40:41.352Z,74.71
2023-04-12T07:43:07.707Z,76.22
2023-04-12T07:45:34.001Z,76.37
2023-04-12T07:48:00.299Z,72.82
2023-04-12T07:50:26.596Z,75.78
2023-04-12T07:52:52.879Z,75.29
2023-04-12T07:55:19.177Z,67.19
2023-04-12T07:57:45.447Z,65.03
2023-04-12T08:00:11.702Z,66.97
2023-04-12T08:02:38.124Z,64.69
2023-04-12T08:05:04.469Z,62.32
2023-04-12T08:07:30.711Z,61.68
2023-04-12T08:09:56.946Z,63.00
2023-04-12T08:12:23.178Z,60.40
2023-04-12T08:14:49.442Z,60.53
2023-04-12T08:17:15.899Z,60.01
2023-04-12T08:19:42.142Z,59.49
2023-04-12T08:22:08.415Z,65.17
2023-04-12T08:24:34.661Z,68.86
2023-04-12T08:27:00.919Z,66.86
2023-04-12T08:29:27.156Z,66.10
2023-04-12T08:31:53.388Z,61.52
2023-04-12T08:34:19.666Z,60.63
2023-04-12T08:36:45.907Z,60.23
2023-04-12T08:39:12.195Z,61.93
2023-04-12T08:41:39.152Z,56.74
2023-04-12T08:44:05.555Z,57.85
2023-04-12T08:46:31.939Z,59.28
2023-04-12T08:48:58.388Z,60.88
2023-04-12T08:51:24.643Z,58.16
2023-04-12T08:53:50.900Z,59.33
2023-04-12T08:56:17.210Z,60.02
2023-04-12T08:58:43.451Z,57.27
2023-04-12T09:01:09.717Z,51.94
2023-04-12T09:03:36.083Z,53.80
2023-04-12T09:06:02.412Z,53.39
2023-04-12T09:08:28.675Z,53.04
2023-04-12T09:10:54.934Z,51.95
2023-04-12T09:13:21.166Z,52.95
2023-04-12T09:15:47.600Z,54.19
2023-04-12T09:18:16.669Z,54.06
2023-04-12T09:20:43.577Z,52.98
2023-04-12T09:23:09.837Z,51.30
2023-04-12T09:25:36.104Z,51.15
2023-04-12T09:28:02.354Z,50.98
2023-04-12T09:30:28.600Z,49.52
2023-04-12T09:32:54.883Z,50.54
2023-04-12T09:35:21.198Z,47.60
2023-04-12T09:37:47.444Z,47.93
2023-04-12T09:40:13.703Z,48.60
2023-04-12T09:42:39.950Z,50.03
2023-04-12T09:45:06.204Z,47.44
2023-04-12T09:47:32.546Z,49.38
2023-04-12T09:49:58.814Z,49.07
2023-04-12T09:52:25.082Z,47.13
2023-04-12T09:54:51.368Z,45.05
2023-04-12T09:57:17.656Z,47.68
2023-04-12T09:59:43.902Z,47.45
2023-04-12T10:02:10.244Z,48.56
2023-04-12T10:04:36.676Z,46.67
2023-04-12T10:07:03.026Z,47.90
2023-04-12T10:09:29.267Z,47.63
2023-04-12T10:11:55.540Z,50.19
2023-04-12T10:14:21.811Z,48.97
2023-04-12T10:16:48.285Z,48.40
2023-04-12T10:19:14.614Z,48.08
2023-04-12T10:21:40.851Z,49.35
2023-04-12T10:24:07.093Z,48.69
2023-04-12T10:26:33.368Z,50.57
2023-04-12T10:28:59.816Z,50.94
2023-04-12T10:31:26.364Z,49.52
2023-04-12T10:33:52.698Z,48.56
2023-04-12T10:36:19.029Z,48.97
2023-04-12T10:38:45.313Z,48.15
2023-04-12T10:41:11.610Z,47.42
2023-04-12T10:43:37.958Z,48.33
2023-04-12T10:46:04.397Z,49.63
2023-04-12T10:48:30.740Z,46.63
2023-04-12T10:50:56.997Z,49.75
2023-04-12T10:53:23.318Z,49.47
2023-04-12T10:55:49.568Z,50.26
2023-04-12T10:58:15.821Z,51.92
2023-04-12T11:00:42.169Z,49.46
2023-04-12T11:03:08.791Z,48.87
2023-04-12T11:05:35.272Z,49.75
2023-04-12T11:08:01.631Z,50.86
2023-04-12T11:10:27.915Z,51.82
2023-04-12T11:12:54.205Z,51.22
2023-04-12T11:15:20.473Z,49.60
2023-04-12T11:17:46.785Z,50.11
2023-04-12T11:20:13.207Z,49.70
2023-04-12T11:22:39.539Z,48.99
2023-04-12T11:25:05.787Z,47.17
2023-04-12T11:27:32.031Z,49.58
2023-04-12T11:29:58.290Z,49.67
2023-04-12T11:34:50.777Z,47.62
2023-04-12T11:37:17.012Z,47.53
2023-04-12T11:39:43.276Z,46.27
2023-04-12T11:42:09.529Z,47.57
2023-04-12T11:44:48.173Z,46.85
2023-04-12T11:47:21.260Z,43.59
2023-04-12T11:49:47.507Z,44.20
2023-04-12T11:52:13.755Z,42.72
2023-04-12T11:54:40.044Z,41.82
2023-04-12T11:57:06.278Z,41.97
2023-04-12T11:59:32.580Z,42.88
2023-04-12T12:01:58.862Z,43.41
2023-04-12T12:04:25.467Z,43.90
2023-04-12T12:06:52.271Z,44.63
2023-04-12T12:09:18.609Z,43.71
2023-04-12T12:11:44.848Z,41.01
2023-04-12T12:14:11.108Z,40.60
2023-04-12T12:16:37.365Z,41.43
2023-04-12T12:19:03.616Z,40.14
2023-04-12T12:21:29.886Z,39.35
2023-04-12T12:23:56.557Z,38.70
2023-04-12T12:26:23.020Z,39.69
2023-04-12T12:28:49.279Z,40.24
2023-04-12T12:31:15.571Z,37.35
2023-04-12T12:33:46.777Z,38.96
2023-04-12T12:36:13.675Z,37.28
2023-04-12T12:38:39.941Z,38.04
2023-04-12T12:41:06.194Z,37.88
2023-04-12T12:43:32.504Z,34.49
2023-04-12T12:45:58.773Z,36.52
2023-04-12T12:48:25.029Z,35.73
2023-04-12T12:50:51.278Z,37.86
2023-04-12T12:53:17.553Z,36.45
2023-04-12T12:55:43.838Z,35.65
2023-04-12T12:58:10.089Z,33.83
2023-04-12T13:00:36.370Z,33.07
2023-04-12T13:03:03.390Z,31.83
2023-04-12T13:05:29.962Z,32.53
2023-04-12T13:07:56.228Z,33.05
2023-04-12T13:10:22.471Z,33.05
2023-04-12T13:12:48.706Z,31.75
2023-04-12T13:15:22.262Z,30.16
2023-04-12T13:17:49.775Z,28.03
2023-04-12T13:20:16.054Z,27.86
2023-04-12T13:22:42.297Z,29.04
2023-04-12T13:25:08.543Z,28.38
2023-04-12T13:27:34.810Z,28.50
2023-04-12T13:30:01.094Z,28.01
2023-04-12T13:32:27.474Z,29.40
2023-04-12T13:34:53.784Z,29.35
2023-04-12T13:37:20.052Z,28.39
2023-04-12T13:39:46.324Z,27.92
2023-04-12T13:42:12.580Z,28.06
2023-04-12T13:44:38.848Z,27.39
2023-04-12T13:47:05.077Z,28.09
2023-04-12T13:49:31.326Z,28.53
2023-04-12T13:51:57.609Z,28.97
2023-04-12T13:54:23.892Z,28.13
2023-04-12T13:56:50.140Z,28.75
2023-04-12T13:59:16.376Z,27.52
2023-04-12T14:01:42.872Z,27.48
2023-04-12T14:04:09.354Z,27.22
2023-04-12T14:06:35.777Z,27.22
2023-04-12T14:09:02.023Z,29.30
2023-04-12T14:11:28.264Z,27.77
2023-04-12T14:13:54.546Z,27.10
2023-04-12T14:16:20.804Z,28.00
2023-04-12T14:18:47.090Z,28.53
2023-04-12T14:21:13.383Z,28.34
2023-04-12T14:23:39.635Z,29.69
2023-04-12T14:26:05.926Z,30.19
2023-04-12T14:28:32.197Z,30.08
2023-04-12T14:30:58.522Z,29.98
2023-04-12T14:33:24.823Z,29.96
2023-04-12T14:35:51.089Z,29.74
2023-04-12T14:38:17.339Z,30.77
2023-04-12T14:40:43.571Z,30.54
2023-04-12T14:43:09.846Z,30.47
2023-04-12T14:45:36.148Z,32.42
2023-04-12T14:48:02.437Z,31.26
2023-04-12T14:50:28.752Z,33.10
2023-04-12T14:52:55.038Z,33.61
2023-04-12T14:55:21.287Z,32.18
2023-04-12T14:57:47.541Z,31.95
2023-04-12T15:00:13.824Z,32.74
2023-04-12T15:02:40.298Z,32.18
2023-04-12T15:05:06.931Z,33.10
2023-04-12T15:07:33.269Z,36.19
2023-04-12T15:09:59.554Z,37.34
2023-04-12T15:12:25.802Z,38.10
2023-04-12T15:14:52.050Z,37.69
2023-04-12T15:17:18.277Z,40.23
2023-04-12T15:19:44.513Z,38.92
2023-04-12T15:22:10.754Z,40.58
2023-04-12T15:24:36.988Z,38.35
2023-04-12T15:27:05.129Z,40.40
2023-04-12T15:29:32.762Z,39.37
2023-04-12T15:31:59.076Z,40.67
2023-04-12T15:34:25.377Z,40.42
2023-04-12T15:36:51.666Z,41.69
2023-04-12T15:39:17.985Z,41.59
2023-04-12T15:41:44.255Z,43.06
2023-04-12T15:44:10.485Z,41.95
2023-04-12T15:46:36.733Z,41.81
2023-04-12T15:49:03.020Z,41.60
2023-04-12T15:51:29.361Z,42.04
2023-04-12T15:53:55.760Z,41.51
2023-04-12T15:56:22.143Z,40.74
2023-04-12T15:58:48.400Z,41.15
2023-04-12T16:01:14.717Z,42.14
2023-04-12T16:03:41.078Z,41.80
2023-04-12T16:06:07.374Z,42.47
2023-04-12T16:08:33.628Z,42.19
2023-04-12T16:10:59.872Z,42.96
2023-04-12T16:13:26.124Z,42.58
2023-04-12T16:15:52.447Z,42.50
2023-04-12T16:18:18.751Z,42.24
2023-04-12T16:20:44.984Z,42.13
2023-04-12T16:23:11.237Z,42.29
2023-04-12T16:25:37.465Z,42.04
2023-04-12T16:28:03.728Z,42.79
2023-04-12T16:30:30.039Z,42.42
2023-04-12T16:32:56.394Z,42.33
2023-04-12T16:35:22.701Z,42.21
2023-04-12T16:37:48.960Z,44.04
2023-04-12T16:40:15.190Z,44.12
2023-04-12T16:42:41.714Z,43.89
2023-04-12T16:45:08.059Z,43.21
2023-04-12T16:47:34.325Z,43.98
2023-04-12T16:50:00.611Z,43.84
2023-04-12T16:52:26.857Z,44.87
2023-04-12T16:54:53.209Z,44.82
2023-04-12T16:57:19.474Z,44.49
2023-04-12T16:59:45.768Z,45.95
2023-04-12T17:02:12.019Z,44.90
2023-04-12T17:04:38.233Z,45.90
2023-04-12T17:07:04.478Z,46.59
2023-04-12T17:09:30.756Z,49.15
2023-04-12T17:11:57.042Z,50.48
2023-04-12T17:14:23.340Z,49.19
2023-04-12T17:16:49.602Z,49.46
2023-04-12T17:19:15.860Z,49.00
2023-04-12T17:21:42.197Z,50.10
2023-04-12T17:24:08.677Z,49.38
2023-04-12T17:26:34.944Z,50.16
2023-04-12T17:29:01.232Z,50.95
2023-04-12T17:31:27.573Z,51.52
2023-04-12T17:33:53.886Z,52.01
2023-04-12T17:36:20.122Z,52.09
2023-04-12T17:38:46.430Z,52.13
2023-04-12T17:41:12.704Z,54.27
2023-04-12T17:43:38.917Z,54.80
2023-04-12T17:46:05.200Z,54.80
2023-04-12T17:48:31.468Z,54.75
2023-04-12T17:50:57.741Z,56.86
2023-04-12T17:53:24.024Z,57.96
2023-04-12T17:55:50.815Z,59.17
2023-04-12T17:58:17.200Z,59.53
2023-04-12T18:00:43.428Z,61.02
2023-04-12T18:03:09.794Z,64.82
2023-04-12T18:05:36.151Z,67.69
2023-04-12T18:08:02.392Z,71.87
2023-04-12T18:10:28.653Z,75.79
2023-04-12T18:12:54.952Z,82.02
2023-04-12T18:15:21.204Z,87.54
2023-04-12T18:17:47.495Z,89.11
2023-04-12T18:20:13.858Z,94.22
2023-04-12T18:22:43.595Z,93.57
2023-04-12T18:25:10.383Z,95.27
2023-04-12T18:27:36.660Z,100.00
2023-04-12T18:30:02.916Z,100.00
2023-04-12T18:32:29.184Z,100.00
2023-04-12T18:34:55.523Z,100.00
2023-04-12T18:37:21.766Z,100.00
2023-04-12T18:39:48.047Z,98.56
2023-04-12T18:42:14.324Z,99.69
2023-04-12T18:44:40.573Z,94.93
2023-04-12T18:47:06.876Z,95.32
2023-04-12T18:49:33.140Z,96.20
2023-04-12T18:51:59.385Z,97.46
2023-04-12T18:54:25.667Z,100.00
2023-04-12T18:56:51.955Z,100.00
2023-04-12T18:59:18.235Z,98.19
2023-04-12T19:01:44.543Z,90.69
2023-04-12T19:04:10.960Z,92.10
2023-04-12T19:06:37.284Z,91.44
2023-04-12T19:09:03.599Z,92.67
2023-04-12T19:11:29.955Z,87.40
2023-04-12T19:13:56.333Z,83.92
2023-04-12T19:16:22.906Z,87.38
2023-04-12T19:18:49.271Z,81.95
2023-04-12T19:21:15.531Z,82.68
2023-04-12T19:23:41.794Z,83.36
2023-04-12T19:26:08.047Z,86.60
2023-04-12T19:28:34.333Z,86.99
2023-04-12T19:31:00.587Z,88.37
2023-04-12T19:33:26.846Z,87.13
2023-04-12T19:35:53.102Z,89.16
2023-04-12T19:38:19.399Z,90.19
2023-04-12T19:40:45.722Z,89.36
2023-04-12T19:43:11.980Z,87.05
2023-04-12T19:45:38.241Z,87.85
2023-04-12T19:48:04.546Z,85.38
2023-04-12T19:50:30.933Z,85.26
2023-04-12T19:52:57.966Z,84.60
2023-04-12T19:55:24.276Z,87.69
2023-04-12T19:57:50.532Z,85.76
2023-04-12T20:00:16.811Z,86.71
2023-04-12T20:02:43.109Z,85.35
2023-04-12T20:05:09.390Z,85.00
2023-04-12T20:07:35.637Z,85.80
2023-04-12T20:10:01.883Z,85.19
2023-04-12T20:12:28.162Z,88.45
2023-04-12T20:14:54.460Z,92.75
2023-04-12T20:17:20.686Z,96.49
2023-04-12T20:19:46.912Z,95.89
2023-04-12T20:22:13.149Z,89.05
2023-04-12T20:24:39.427Z,84.08
2023-04-12T20:27:05.729Z,80.93
2023-04-12T20:29:31.973Z,77.73
2023-04-12T20:31:58.220Z,74.63
2023-04-12T20:34:24.448Z,74.61
2023-04-12T20:36:50.732Z,72.99
2023-04-12T20:39:17.004Z,70.57
2023-04-12T20:41:43.253Z,69.89
2023-04-12T20:44:09.539Z,69.20
2023-04-12T20:46:36.745Z,70.44
2023-04-12T20:49:03.199Z,76.21
2023-04-12T20:51:29.425Z,77.82
2023-04-12T20:53:55.669Z,78.60
2023-04-12T20:56:21.903Z,78.11
2023-04-12T20:58:48.161Z,77.85
2023-04-12T21:01:14.566Z,77.74
2023-04-12T21:03:41.255Z,77.62
2023-04-12T21:06:07.702Z,77.85
2023-04-12T21:08:33.962Z,77.18
2023-04-12T21:11:00.222Z,73.86
2023-04-12T21:13:26.536Z,74.49
2023-04-12T21:15:52.852Z,72.15
2023-04-12T21:18:19.143Z,70.44
2023-04-12T21:20:45.390Z,70.99
2023-04-12T21:23:11.677Z,71.99
2023-04-12T21:25:38.046Z,72.32
2023-04-12T21:28:04.271Z,73.73
2023-04-12T21:30:30.511Z,74.17
2023-04-12T21:32:56.798Z,74.55
2023-04-12T21:35:23.103Z,74.23
2023-04-12T21:37:49.384Z,72.81
2023-04-12T21:40:15.605Z,73.55
2023-04-12T21:42:41.857Z,73.46
2023-04-12T21:45:08.095Z,74.78
2023-04-12T21:47:34.342Z,72.54
2023-04-12T21:50:00.599Z,72.41
2023-04-12T21:52:26.847Z,73.43
2023-04-12T21:54:53.111Z,73.81
2023-04-12T21:57:19.383Z,73.26
2023-04-12T21:59:45.676Z,73.77
2023-04-12T22:02:12.011Z,72.04
2023-04-12T22:04:38.292Z,70.76
2023-04-12T22:07:04.551Z,73.65
2023-04-12T22:09:30.796Z,71.66
2023-04-12T22:11:57.068Z,73.71
2023-04-12T22:14:23.334Z,77.01
2023-04-12T22:16:49.696Z,77.61
2023-04-12T22:19:16.028Z,79.66
2023-04-12T22:21:42.333Z,84.09
2023-04-12T22:24:08.589Z,87.83
2023-04-12T22:26:34.868Z,89.38
2023-04-12T22:29:01.160Z,90.35
2023-04-12T22:31:27.489Z,89.99
2023-04-12T22:33:53.804Z,90.90
2023-04-12T22:36:20.042Z,93.22
2023-04-12T22:38:46.292Z,94.94
2023-04-12T22:41:12.551Z,91.71
2023-04-12T22:43:38.784Z,93.77
2023-04-12T22:46:05.052Z,95.38
2023-04-12T22:48:31.349Z,89.40
2023-04-12T22:50:57.603Z,91.80
2023-04-12T22:53:23.882Z,90.11
2023-04-12T22:55:50.118Z,90.90
2023-04-12T22:58:16.417Z,95.32
2023-04-12T23:00:42.674Z,94.84
2023-04-12T23:03:09.182Z,91.87
2023-04-12T23:05:35.607Z,93.19
2023-04-12T23:08:02.448Z,92.33
2023-04-12T23:10:28.696Z,89.93
2023-04-12T23:12:54.974Z,86.20
2023-04-12T23:15:21.284Z,89.19
2023-04-12T23:17:47.551Z,91.30
2023-04-12T23:20:13.897Z,87.94
2023-04-12T23:22:52.895Z,90.82
2023-04-12T23:25:23.803Z,89.64
2023-04-12T23:27:50.093Z,92.32
2023-04-12T23:30:16.366Z,93.10
2023-04-12T23:32:42.627Z,93.26
2023-04-12T23:35:08.905Z,95.12
2023-04-12T23:37:35.131Z,96.42
2023-04-12T23:40:01.472Z,96.34
2023-04-12T23:42:27.787Z,91.13
2023-04-12T23:44:54.027Z,92.61
2023-04-12T23:47:20.264Z,92.96
2023-04-12T23:49:46.520Z,96.73
2023-04-12T23:52:12.788Z,96.16
2023-04-12T23:54:39.042Z,94.70
2023-04-12T23:57:05.282Z,90.68
2023-04-12T23:59:31.552Z,84.94
